createdAt,value
2016-11-29T00:00:05.831Z,0.19
2016-11-29T00:00:27.544Z,0.35
2016-11-29T00:00:49.266Z,0.51
2016-11-29T00:01:10.988Z,0.57
2016-11-29T00:01:32.705Z,0.55
2016-11-29T00:01:54.417Z,0.45
2016-11-29T00:02:16.133Z,0.35
2016-11-29T00:02:37.854Z,0.29
2016-11-29T00:02:59.571Z,0.30
2016-11-29T00:03:21.288Z,0.41
2016-11-29T00:03:43.007Z,0.57
2016-11-29T00:04:04.717Z,0.65
2016-11-29T00:04:26.447Z,0.71
2016-11-29T00:04:48.177Z,0.77
2016-11-29T00:05:09.898Z,0.77
2016-11-29T00:05:31.615Z,0.79
2016-11-29T00:05:53.335Z,0.83
2016-11-29T00:06:15.052Z,0.83
2016-11-29T00:06:36.782Z,0.71
2016-11-29T00:06:58.511Z,0.62
2016-11-29T00:07:20.234Z,0.58
2016-11-29T00:07:41.961Z,0.67
2016-11-29T00:08:03.681Z,0.64
2016-11-29T00:08:25.423Z,0.53
2016-11-29T00:08:47.150Z,0.64
2016-11-29T00:09:08.885Z,0.56
2016-11-29T00:09:30.600Z,0.44
2016-11-29T00:09:52.324Z,0.35
2016-11-29T00:10:14.042Z,0.29
2016-11-29T00:10:35.764Z,0.23
2016-11-29T00:10:57.480Z,0.38
2016-11-29T00:11:19.195Z,0.47
2016-11-29T00:11:40.937Z,0.41
2016-11-29T00:12:02.653Z,0.34
2016-11-29T00:12:24.374Z,0.32
2016-11-29T00:12:46.092Z,0.21
2016-11-29T00:13:07.812Z,0.33
2016-11-29T00:13:29.537Z,0.33
2016-11-29T00:13:51.252Z,0.50
2016-11-29T00:14:12.975Z,0.41
2016-11-29T00:14:34.689Z,0.35
2016-11-29T00:14:56.412Z,0.32
2016-11-29T00:15:18.134Z,0.36
2016-11-29T00:15:39.851Z,0.20
2016-11-29T00:16:01.567Z,0.02
2016-11-29T00:16:23.290Z,-0.09
2016-11-29T00:16:45.002Z,-0.13
2016-11-29T00:17:06.724Z,-0.07
2016-11-29T00:17:28.442Z,0.13
2016-11-29T00:17:50.163Z,0.25
2016-11-29T00:18:11.879Z,0.21
2016-11-29T00:18:33.596Z,0.17
2016-11-29T00:18:55.319Z,0.19
2016-11-29T00:19:17.040Z,0.15
2016-11-29T00:19:38.759Z,0.05
2016-11-29T00:20:00.478Z,0.01
2016-11-29T00:20:22.194Z,0.04
2016-11-29T00:20:43.921Z,0.18
2016-11-29T00:21:05.631Z,0.18
2016-11-29T00:21:27.355Z,0.16
2016-11-29T00:21:49.073Z,0.18
2016-11-29T00:22:10.797Z,0.25
2016-11-29T00:22:32.515Z,0.22
2016-11-29T00:22:54.235Z,0.12
2016-11-29T00:23:15.951Z,0.04
2016-11-29T00:23:37.738Z,-0.04
2016-11-29T00:23:59.445Z,-0.03
2016-11-29T00:24:21.164Z,0.03
2016-11-29T00:24:42.892Z,0.03
2016-11-29T00:25:04.619Z,0.14
2016-11-29T00:25:26.332Z,0.28
2016-11-29T00:25:48.055Z,0.32
2016-11-29T00:26:09.772Z,0.40
2016-11-29T00:26:31.491Z,0.38
2016-11-29T00:26:53.225Z,0.40
2016-11-29T00:27:16.953Z,0.31
2016-11-29T00:27:38.688Z,0.26
2016-11-29T00:28:00.407Z,0.37
2016-11-29T00:28:22.131Z,0.34
2016-11-29T00:28:43.849Z,0.17
2016-11-29T00:29:05.566Z,0.01
2016-11-29T00:29:27.286Z,-0.13
2016-11-29T00:29:49.000Z,-0.16
2016-11-29T00:30:10.722Z,-0.21
2016-11-29T00:30:32.446Z,-0.23
2016-11-29T00:30:54.178Z,-0.20
2016-11-29T00:31:15.894Z,-0.17
2016-11-29T00:31:37.612Z,-0.12
2016-11-29T00:31:59.332Z,-0.06
2016-11-29T00:32:21.052Z,-0.02
2016-11-29T00:32:42.774Z,0.11
2016-11-29T00:33:04.490Z,0.17
2016-11-29T00:33:26.206Z,0.15
2016-11-29T00:33:47.919Z,0.15
2016-11-29T00:34:09.635Z,0.27
2016-11-29T00:34:31.353Z,0.32
2016-11-29T00:34:53.066Z,0.19
2016-11-29T00:35:14.788Z,0.22
2016-11-29T00:35:36.511Z,0.15
2016-11-29T00:35:58.232Z,0.18
2016-11-29T00:36:19.944Z,0.20
2016-11-29T00:36:41.663Z,0.17
2016-11-29T00:37:03.379Z,0.15
2016-11-29T00:37:25.093Z,0.17
2016-11-29T00:37:46.812Z,0.16
2016-11-29T00:38:08.543Z,0.24
2016-11-29T00:38:30.245Z,0.22
2016-11-29T00:38:51.959Z,0.35
2016-11-29T00:39:13.684Z,0.33
2016-11-29T00:39:35.416Z,0.23
2016-11-29T00:39:57.136Z,0.26
2016-11-29T00:40:18.853Z,0.42
2016-11-29T00:40:40.594Z,0.34
2016-11-29T00:41:02.310Z,0.39
2016-11-29T00:41:24.025Z,0.47
2016-11-29T00:41:48.720Z,0.42
2016-11-29T00:42:10.477Z,0.40
2016-11-29T00:42:32.194Z,0.33
2016-11-29T00:42:53.913Z,0.23
2016-11-29T00:43:15.626Z,0.19
2016-11-29T00:43:37.345Z,0.08
2016-11-29T00:43:59.064Z,0.05
2016-11-29T00:44:20.780Z,0.14
2016-11-29T00:44:42.502Z,0.22
2016-11-29T00:45:04.221Z,0.12
2016-11-29T00:45:25.935Z,0.12
2016-11-29T00:45:47.651Z,0.12
2016-11-29T00:46:09.371Z,0.22
2016-11-29T00:46:31.093Z,0.27
2016-11-29T00:46:52.809Z,0.37
2016-11-29T00:47:14.561Z,0.40
2016-11-29T00:47:36.277Z,0.36
2016-11-29T00:47:57.995Z,0.30
2016-11-29T00:48:19.720Z,0.21
2016-11-29T00:48:41.441Z,0.19
2016-11-29T00:49:03.290Z,0.12
2016-11-29T00:49:25.013Z,0.05
2016-11-29T00:49:46.727Z,0.04
2016-11-29T00:50:08.447Z,0.04
2016-11-29T00:50:30.170Z,0.00
2016-11-29T00:50:51.888Z,0.09
2016-11-29T00:51:13.603Z,0.01
2016-11-29T00:51:35.316Z,0.05
2016-11-29T00:51:57.036Z,0.05
2016-11-29T00:52:18.758Z,0.04
2016-11-29T00:52:40.468Z,-0.03
2016-11-29T00:53:02.183Z,-0.10
2016-11-29T00:53:23.901Z,-0.15
2016-11-29T00:53:45.744Z,0.03
2016-11-29T00:54:07.465Z,0.01
2016-11-29T00:54:29.180Z,0.09
2016-11-29T00:54:50.898Z,0.18
2016-11-29T00:55:12.621Z,0.22
2016-11-29T00:55:34.343Z,0.25
2016-11-29T00:55:56.058Z,0.28
2016-11-29T00:56:17.774Z,0.22
2016-11-29T00:56:39.493Z,0.31
2016-11-29T00:57:01.215Z,0.39
2016-11-29T00:57:22.933Z,0.31
2016-11-29T00:57:44.648Z,0.32
2016-11-29T00:58:06.371Z,0.20
2016-11-29T00:58:28.111Z,0.09
2016-11-29T00:58:49.828Z,-0.01
2016-11-29T00:59:11.554Z,-0.08
2016-11-29T00:59:33.268Z,-0.14
2016-11-29T00:59:54.985Z,-0.07
2016-11-29T01:00:16.702Z,0.04
2016-11-29T01:00:38.424Z,0.11
2016-11-29T01:01:00.143Z,0.27
2016-11-29T01:01:21.859Z,0.19
2016-11-29T01:01:43.578Z,0.19
2016-11-29T01:02:05.296Z,0.11
2016-11-29T01:02:27.026Z,0.01
2016-11-29T01:02:48.739Z,0.10
2016-11-29T01:03:10.518Z,0.19
2016-11-29T01:03:32.233Z,0.19
2016-11-29T01:03:53.950Z,0.28
2016-11-29T01:04:15.673Z,0.19
2016-11-29T01:04:37.387Z,0.04
2016-11-29T01:04:59.102Z,-0.09
2016-11-29T01:05:20.846Z,-0.16
2016-11-29T01:05:42.562Z,-0.15
2016-11-29T01:06:04.283Z,-0.02
2016-11-29T01:06:26.009Z,0.04
2016-11-29T01:06:47.729Z,-0.03
2016-11-29T01:07:09.453Z,-0.10
2016-11-29T01:07:31.187Z,0.05
2016-11-29T01:07:52.979Z,0.11
2016-11-29T01:08:14.701Z,0.10
2016-11-29T01:08:36.418Z,0.22
2016-11-29T01:08:58.133Z,0.19
2016-11-29T01:09:19.853Z,0.20
2016-11-29T01:09:41.567Z,0.28
2016-11-29T01:10:03.291Z,0.31
2016-11-29T01:10:25.006Z,0.20
2016-11-29T01:10:46.722Z,0.20
2016-11-29T01:11:08.445Z,0.25
2016-11-29T01:11:30.164Z,0.33
2016-11-29T01:11:51.877Z,0.19
2016-11-29T01:12:13.596Z,0.22
2016-11-29T01:12:35.366Z,0.12
2016-11-29T01:12:57.090Z,0.08
2016-11-29T01:13:18.802Z,0.04
2016-11-29T01:13:40.519Z,-0.03
2016-11-29T01:14:02.239Z,-0.09
2016-11-29T01:14:23.987Z,-0.10
2016-11-29T01:14:45.722Z,-0.14
2016-11-29T01:15:07.443Z,-0.13
2016-11-29T01:15:29.161Z,-0.14
2016-11-29T01:15:50.877Z,-0.20
2016-11-29T01:16:12.603Z,-0.26
2016-11-29T01:16:34.319Z,-0.31
2016-11-29T01:16:56.049Z,-0.23
2016-11-29T01:17:17.836Z,-0.24
2016-11-29T01:17:39.556Z,-0.13
2016-11-29T01:18:01.278Z,-0.04
2016-11-29T01:18:22.993Z,0.02
2016-11-29T01:18:44.708Z,0.03
2016-11-29T01:19:06.428Z,0.07
2016-11-29T01:19:28.145Z,-0.02
2016-11-29T01:19:49.859Z,-0.06
2016-11-29T01:20:11.783Z,-0.19
2016-11-29T01:20:33.505Z,-0.24
2016-11-29T01:20:55.221Z,-0.29
2016-11-29T01:21:16.933Z,-0.13
2016-11-29T01:21:38.689Z,-0.11
2016-11-29T01:22:00.401Z,-0.10
2016-11-29T01:22:22.118Z,-0.12
2016-11-29T01:22:43.842Z,-0.13
2016-11-29T01:23:05.560Z,-0.20
2016-11-29T01:23:27.277Z,-0.22
2016-11-29T01:23:48.993Z,-0.26
2016-11-29T01:24:10.707Z,-0.16
2016-11-29T01:24:32.427Z,-0.14
2016-11-29T01:24:54.138Z,-0.20
2016-11-29T01:25:15.860Z,-0.15
2016-11-29T01:25:37.581Z,0.03
2016-11-29T01:25:59.297Z,0.05
2016-11-29T01:26:21.009Z,0.13
2016-11-29T01:26:42.741Z,0.19
2016-11-29T01:27:04.458Z,0.21
2016-11-29T01:27:26.172Z,0.14
2016-11-29T01:27:47.893Z,0.14
2016-11-29T01:28:09.613Z,0.10
2016-11-29T01:28:31.344Z,0.12
2016-11-29T01:28:53.057Z,0.22
2016-11-29T01:29:14.774Z,0.26
2016-11-29T01:29:36.490Z,0.24
2016-11-29T01:29:58.209Z,0.14
2016-11-29T01:30:19.937Z,0.13
2016-11-29T01:30:41.653Z,0.15
2016-11-29T01:31:03.377Z,0.18
2016-11-29T01:31:25.102Z,0.19
2016-11-29T01:31:46.812Z,0.11
2016-11-29T01:32:08.529Z,0.16
2016-11-29T01:32:30.244Z,0.25
2016-11-29T01:32:51.971Z,0.35
2016-11-29T01:33:13.694Z,0.28
2016-11-29T01:33:35.431Z,0.26
2016-11-29T01:33:57.149Z,0.22
2016-11-29T01:34:18.860Z,0.16
2016-11-29T01:34:40.575Z,0.11
2016-11-29T01:35:02.299Z,0.09
2016-11-29T01:35:24.016Z,0.01
2016-11-29T01:35:45.728Z,-0.02
2016-11-29T01:36:07.453Z,-0.04
2016-11-29T01:36:29.168Z,0.05
2016-11-29T01:36:50.881Z,0.08
2016-11-29T01:37:12.599Z,0.13
2016-11-29T01:37:34.316Z,0.15
2016-11-29T01:37:56.037Z,0.09
2016-11-29T01:38:17.764Z,0.01
2016-11-29T01:38:39.483Z,-0.09
2016-11-29T01:39:01.196Z,-0.04
2016-11-29T01:39:22.914Z,0.02
2016-11-29T01:39:44.653Z,0.00
2016-11-29T01:40:06.369Z,0.00
2016-11-29T01:40:28.084Z,0.10
2016-11-29T01:40:49.797Z,0.00
2016-11-29T01:41:11.527Z,-0.10
2016-11-29T01:41:33.241Z,-0.19
2016-11-29T01:41:54.952Z,-0.26
2016-11-29T01:42:16.685Z,-0.31
2016-11-29T01:42:38.421Z,-0.32
2016-11-29T01:43:00.145Z,-0.37
2016-11-29T01:43:21.863Z,-0.37
2016-11-29T01:43:43.588Z,-0.39
2016-11-29T01:44:05.309Z,-0.41
2016-11-29T01:44:27.023Z,-0.35
2016-11-29T01:44:48.746Z,-0.33
2016-11-29T01:45:10.466Z,-0.34
2016-11-29T01:45:32.185Z,-0.36
2016-11-29T01:45:53.899Z,-0.23
2016-11-29T01:46:15.619Z,-0.21
2016-11-29T01:46:37.334Z,-0.26
2016-11-29T01:47:01.718Z,-0.27
2016-11-29T01:47:23.436Z,-0.30
2016-11-29T01:47:45.155Z,-0.32
2016-11-29T01:48:06.873Z,-0.39
2016-11-29T01:48:28.590Z,-0.37
2016-11-29T01:48:50.314Z,-0.39
2016-11-29T01:49:12.030Z,-0.39
2016-11-29T01:49:33.746Z,-0.41
2016-11-29T01:49:55.460Z,-0.29
2016-11-29T01:50:17.178Z,-0.23
2016-11-29T01:50:38.901Z,-0.19
2016-11-29T01:51:00.616Z,-0.25
2016-11-29T01:51:22.334Z,-0.26
2016-11-29T01:51:44.057Z,-0.37
2016-11-29T01:52:05.777Z,-0.32
2016-11-29T01:52:27.496Z,-0.17
2016-11-29T01:52:49.211Z,-0.07
2016-11-29T01:53:10.930Z,0.00
2016-11-29T01:53:32.649Z,-0.06
2016-11-29T01:53:54.380Z,0.07
2016-11-29T01:54:16.102Z,0.13
2016-11-29T01:54:37.828Z,-0.02
2016-11-29T01:54:59.545Z,-0.16
2016-11-29T01:55:21.259Z,-0.14
2016-11-29T01:55:42.984Z,-0.20
2016-11-29T01:56:04.837Z,-0.29
2016-11-29T01:56:26.549Z,-0.38
2016-11-29T01:56:48.268Z,-0.40
2016-11-29T01:57:09.999Z,-0.42
2016-11-29T01:57:31.715Z,-0.44
2016-11-29T01:57:53.427Z,-0.49
2016-11-29T01:58:15.141Z,-0.53
2016-11-29T01:58:36.859Z,-0.54
2016-11-29T01:58:58.592Z,-0.50
2016-11-29T01:59:20.309Z,-0.48
2016-11-29T01:59:42.030Z,-0.52
2016-11-29T02:00:03.750Z,-0.52
2016-11-29T02:00:25.473Z,-0.52
2016-11-29T02:00:47.240Z,-0.55
2016-11-29T02:01:08.956Z,-0.34
2016-11-29T02:01:30.687Z,-0.18
2016-11-29T02:01:52.386Z,-0.07
2016-11-29T02:02:14.104Z,0.03
2016-11-29T02:02:35.821Z,-0.03
2016-11-29T02:02:57.543Z,-0.08
2016-11-29T02:03:19.268Z,-0.10
2016-11-29T02:03:40.980Z,-0.13
2016-11-29T02:04:02.722Z,-0.22
2016-11-29T02:04:24.446Z,-0.25
2016-11-29T02:04:46.175Z,-0.15
2016-11-29T02:05:07.890Z,-0.05
2016-11-29T02:05:29.731Z,-0.13
2016-11-29T02:05:51.454Z,-0.25
2016-11-29T02:06:13.174Z,-0.31
2016-11-29T02:06:34.874Z,-0.18
2016-11-29T02:06:56.589Z,-0.18
2016-11-29T02:07:18.309Z,-0.14
2016-11-29T02:07:40.031Z,-0.12
2016-11-29T02:08:01.746Z,-0.18
2016-11-29T02:08:23.473Z,-0.11
2016-11-29T02:08:45.186Z,-0.03
2016-11-29T02:09:06.903Z,-0.08
2016-11-29T02:09:28.623Z,-0.18
2016-11-29T02:09:50.338Z,-0.29
2016-11-29T02:10:12.055Z,-0.34
2016-11-29T02:10:33.773Z,-0.37
2016-11-29T02:10:55.489Z,-0.43
2016-11-29T02:11:17.206Z,-0.47
2016-11-29T02:11:38.924Z,-0.48
2016-11-29T02:12:00.642Z,-0.39
2016-11-29T02:12:22.359Z,-0.33
2016-11-29T02:12:44.072Z,-0.25
2016-11-29T02:13:05.792Z,-0.15
2016-11-29T02:13:27.504Z,-0.28
2016-11-29T02:13:49.230Z,-0.42
2016-11-29T02:14:10.945Z,-0.48
2016-11-29T02:14:32.665Z,-0.37
2016-11-29T02:14:54.427Z,-0.41
2016-11-29T02:15:16.149Z,-0.41
2016-11-29T02:15:37.862Z,-0.44
2016-11-29T02:15:59.586Z,-0.27
2016-11-29T02:16:21.297Z,-0.21
2016-11-29T02:16:43.015Z,-0.19
2016-11-29T02:17:04.759Z,-0.14
2016-11-29T02:17:26.482Z,-0.21
2016-11-29T02:17:48.196Z,-0.28
2016-11-29T02:18:09.919Z,-0.21
2016-11-29T02:18:31.636Z,-0.21
2016-11-29T02:18:53.349Z,-0.25
2016-11-29T02:19:15.065Z,-0.27
2016-11-29T02:19:36.900Z,-0.18
2016-11-29T02:19:58.622Z,-0.16
2016-11-29T02:20:20.346Z,-0.20
2016-11-29T02:20:42.061Z,-0.31
2016-11-29T02:21:03.787Z,-0.38
2016-11-29T02:21:25.500Z,-0.44
2016-11-29T02:21:47.213Z,-0.51
2016-11-29T02:22:08.927Z,-0.63
2016-11-29T02:22:30.652Z,-0.54
2016-11-29T02:22:52.365Z,-0.27
2016-11-29T02:23:14.077Z,-0.23
2016-11-29T02:23:35.796Z,-0.20
2016-11-29T02:23:57.513Z,-0.21
2016-11-29T02:24:19.297Z,-0.17
2016-11-29T02:24:41.016Z,-0.27
2016-11-29T02:25:02.746Z,-0.30
2016-11-29T02:25:24.455Z,-0.18
2016-11-29T02:25:46.175Z,-0.22
2016-11-29T02:26:07.891Z,-0.30
2016-11-29T02:26:29.632Z,-0.17
2016-11-29T02:26:51.348Z,-0.19
2016-11-29T02:27:13.077Z,-0.33
2016-11-29T02:27:34.792Z,-0.40
2016-11-29T02:27:56.504Z,-0.40
2016-11-29T02:28:18.220Z,-0.37
2016-11-29T02:28:39.933Z,-0.33
2016-11-29T02:29:01.776Z,-0.35
2016-11-29T02:29:23.487Z,-0.42
2016-11-29T02:29:45.204Z,-0.47
2016-11-29T02:30:06.925Z,-0.58
2016-11-29T02:30:28.636Z,-0.67
2016-11-29T02:30:50.355Z,-0.73
2016-11-29T02:31:12.070Z,-0.76
2016-11-29T02:31:33.785Z,-0.58
2016-11-29T02:31:55.505Z,-0.57
2016-11-29T02:32:17.222Z,-0.48
2016-11-29T02:32:38.936Z,-0.43
2016-11-29T02:33:00.654Z,-0.42
2016-11-29T02:33:22.382Z,-0.37
2016-11-29T02:33:44.101Z,-0.23
2016-11-29T02:34:05.819Z,-0.16
2016-11-29T02:34:27.533Z,-0.24
2016-11-29T02:34:49.248Z,-0.40
2016-11-29T02:35:10.964Z,-0.48
2016-11-29T02:35:32.677Z,-0.57
2016-11-29T02:35:54.393Z,-0.64
2016-11-29T02:36:16.106Z,-0.68
2016-11-29T02:36:37.826Z,-0.72
2016-11-29T02:36:59.543Z,-0.74
2016-11-29T02:37:21.260Z,-0.61
2016-11-29T02:37:42.975Z,-0.63
2016-11-29T02:38:04.709Z,-0.63
2016-11-29T02:38:26.473Z,-0.57
2016-11-29T02:38:48.189Z,-0.60
2016-11-29T02:39:09.903Z,-0.60
2016-11-29T02:39:31.628Z,-0.65
2016-11-29T02:39:53.345Z,-0.69
2016-11-29T02:40:15.064Z,-0.70
2016-11-29T02:40:36.799Z,-0.74
2016-11-29T02:40:58.525Z,-0.74
2016-11-29T02:41:20.239Z,-0.78
2016-11-29T02:41:41.958Z,-0.83
2016-11-29T02:42:03.672Z,-0.85
2016-11-29T02:42:25.385Z,-0.89
2016-11-29T02:42:47.120Z,-0.95
2016-11-29T02:43:08.845Z,-0.97
2016-11-29T02:43:30.559Z,-0.92
2016-11-29T02:43:52.272Z,-0.89
2016-11-29T02:44:13.989Z,-0.77
2016-11-29T02:44:35.704Z,-0.65
2016-11-29T02:44:57.420Z,-0.54
2016-11-29T02:45:19.133Z,-0.55
2016-11-29T02:45:40.857Z,-0.59
2016-11-29T02:46:02.579Z,-0.59
2016-11-29T02:46:24.295Z,-0.61
2016-11-29T02:46:46.008Z,-0.53
2016-11-29T02:47:07.726Z,-0.57
2016-11-29T02:47:29.446Z,-0.53
2016-11-29T02:47:51.162Z,-0.49
2016-11-29T02:48:12.878Z,-0.56
2016-11-29T02:48:34.595Z,-0.40
2016-11-29T02:48:56.310Z,-0.24
2016-11-29T02:49:18.025Z,-0.31
2016-11-29T02:49:39.739Z,-0.25
2016-11-29T02:50:01.461Z,-0.20
2016-11-29T02:50:23.201Z,-0.41
2016-11-29T02:50:44.918Z,-0.51
2016-11-29T02:51:06.637Z,-0.58
2016-11-29T02:51:28.351Z,-0.44
2016-11-29T02:51:50.080Z,-0.48
2016-11-29T02:52:11.808Z,-0.53
2016-11-29T02:52:33.532Z,-0.61
2016-11-29T02:52:55.291Z,-0.59
2016-11-29T02:53:17.005Z,-0.53
2016-11-29T02:53:38.717Z,-0.50
2016-11-29T02:54:00.431Z,-0.39
2016-11-29T02:54:22.148Z,-0.36
2016-11-29T02:54:43.861Z,-0.41
2016-11-29T02:55:05.581Z,-0.49
2016-11-29T02:55:27.300Z,-0.49
2016-11-29T02:55:49.018Z,-0.52
2016-11-29T02:56:10.733Z,-0.60
2016-11-29T02:56:32.452Z,-0.73
2016-11-29T02:56:54.162Z,-0.75
2016-11-29T02:57:15.877Z,-0.62
2016-11-29T02:57:37.592Z,-0.61
2016-11-29T02:57:59.309Z,-0.43
2016-11-29T02:58:21.027Z,-0.36
2016-11-29T02:58:42.746Z,-0.43
2016-11-29T02:59:04.463Z,-0.49
2016-11-29T02:59:26.204Z,-0.60
2016-11-29T02:59:47.926Z,-0.63
2016-11-29T03:00:09.644Z,-0.69
2016-11-29T03:00:31.358Z,-0.73
2016-11-29T03:00:53.081Z,-0.77
2016-11-29T03:01:14.827Z,-0.78
2016-11-29T03:01:36.548Z,-0.74
2016-11-29T03:01:58.263Z,-0.64
2016-11-29T03:02:19.977Z,-0.69
2016-11-29T03:02:41.695Z,-0.52
2016-11-29T03:03:03.417Z,-0.46
2016-11-29T03:03:25.135Z,-0.34
2016-11-29T03:03:46.853Z,-0.28
2016-11-29T03:04:08.573Z,-0.24
2016-11-29T03:04:30.289Z,-0.42
2016-11-29T03:04:52.002Z,-0.44
2016-11-29T03:05:13.719Z,-0.46
2016-11-29T03:05:35.438Z,-0.59
2016-11-29T03:05:57.158Z,-0.62
2016-11-29T03:06:18.879Z,-0.52
2016-11-29T03:06:40.593Z,-0.49
2016-11-29T03:07:02.308Z,-0.38
2016-11-29T03:07:24.028Z,-0.34
2016-11-29T03:07:45.742Z,-0.39
2016-11-29T03:08:07.464Z,-0.48
2016-11-29T03:08:29.186Z,-0.58
2016-11-29T03:08:50.901Z,-0.47
2016-11-29T03:09:12.629Z,-0.50
2016-11-29T03:09:34.346Z,-0.53
2016-11-29T03:09:56.064Z,-0.45
2016-11-29T03:10:17.780Z,-0.51
2016-11-29T03:10:39.497Z,-0.52
2016-11-29T03:11:01.222Z,-0.57
2016-11-29T03:11:22.941Z,-0.44
2016-11-29T03:11:44.661Z,-0.47
2016-11-29T03:12:06.379Z,-0.43
2016-11-29T03:12:28.104Z,-0.45
2016-11-29T03:12:49.820Z,-0.44
2016-11-29T03:13:11.535Z,-0.42
2016-11-29T03:13:33.255Z,-0.27
2016-11-29T03:13:54.971Z,-0.25
2016-11-29T03:14:16.690Z,-0.36
2016-11-29T03:14:38.408Z,-0.53
2016-11-29T03:15:00.120Z,-0.69
2016-11-29T03:15:21.835Z,-0.71
2016-11-29T03:15:43.556Z,-0.59
2016-11-29T03:16:05.269Z,-0.44
2016-11-29T03:16:26.987Z,-0.42
2016-11-29T03:16:48.702Z,-0.40
2016-11-29T03:17:10.416Z,-0.26
2016-11-29T03:17:32.140Z,-0.31
2016-11-29T03:17:53.855Z,-0.24
2016-11-29T03:18:15.571Z,-0.46
2016-11-29T03:18:37.286Z,-0.50
2016-11-29T03:18:59.005Z,-0.48
2016-11-29T03:19:20.723Z,-0.48
2016-11-29T03:19:42.434Z,-0.41
2016-11-29T03:20:04.162Z,-0.44
2016-11-29T03:20:25.868Z,-0.45
2016-11-29T03:20:47.584Z,-0.60
2016-11-29T03:21:09.298Z,-0.68
2016-11-29T03:21:31.013Z,-0.70
2016-11-29T03:21:52.730Z,-0.73
2016-11-29T03:22:14.446Z,-0.70
2016-11-29T03:22:36.163Z,-0.58
2016-11-29T03:22:57.882Z,-0.49
2016-11-29T03:23:19.598Z,-0.43
2016-11-29T03:23:41.313Z,-0.45
2016-11-29T03:24:03.032Z,-0.52
2016-11-29T03:24:24.746Z,-0.60
2016-11-29T03:24:46.462Z,-0.60
2016-11-29T03:25:08.181Z,-0.57
2016-11-29T03:25:29.902Z,-0.62
2016-11-29T03:25:51.620Z,-0.72
2016-11-29T03:26:13.340Z,-0.77
2016-11-29T03:26:35.057Z,-0.78
2016-11-29T03:26:56.769Z,-0.63
2016-11-29T03:27:18.481Z,-0.55
2016-11-29T03:27:40.197Z,-0.50
2016-11-29T03:28:01.922Z,-0.52
2016-11-29T03:28:23.634Z,-0.55
2016-11-29T03:28:45.353Z,-0.66
2016-11-29T03:29:07.071Z,-0.57
2016-11-29T03:29:28.785Z,-0.48
2016-11-29T03:29:50.501Z,-0.39
2016-11-29T03:30:12.217Z,-0.33
2016-11-29T03:30:33.930Z,-0.27
2016-11-29T03:30:55.645Z,-0.25
2016-11-29T03:31:17.364Z,-0.23
2016-11-29T03:31:39.077Z,-0.37
2016-11-29T03:32:00.795Z,-0.51
2016-11-29T03:32:22.517Z,-0.69
2016-11-29T03:32:44.237Z,-0.76
2016-11-29T03:33:05.951Z,-0.83
2016-11-29T03:33:27.672Z,-0.96
2016-11-29T03:33:49.391Z,-1.12
2016-11-29T03:34:11.125Z,-1.19
2016-11-29T03:34:32.841Z,-1.22
2016-11-29T03:34:54.559Z,-1.23
2016-11-29T03:35:16.270Z,-1.23
2016-11-29T03:35:37.988Z,-1.14
2016-11-29T03:35:59.717Z,-1.07
2016-11-29T03:36:21.432Z,-0.90
2016-11-29T03:36:43.157Z,-0.76
2016-11-29T03:37:04.875Z,-0.81
2016-11-29T03:37:26.587Z,-0.79
2016-11-29T03:37:48.303Z,-0.80
2016-11-29T03:38:10.017Z,-0.82
2016-11-29T03:38:31.732Z,-0.83
2016-11-29T03:38:53.443Z,-0.84
2016-11-29T03:39:15.159Z,-0.75
2016-11-29T03:39:36.879Z,-0.63
2016-11-29T03:39:58.591Z,-0.56
2016-11-29T03:40:20.312Z,-0.58
2016-11-29T03:40:42.026Z,-0.55
2016-11-29T03:41:03.741Z,-0.47
2016-11-29T03:41:25.468Z,-0.55
2016-11-29T03:41:47.183Z,-0.61
2016-11-29T03:42:08.899Z,-0.54
2016-11-29T03:42:30.622Z,-0.42
2016-11-29T03:42:52.351Z,-0.51
2016-11-29T03:43:14.053Z,-0.55
2016-11-29T03:43:35.779Z,-0.65
2016-11-29T03:43:57.497Z,-0.72
2016-11-29T03:44:19.213Z,-0.69
2016-11-29T03:44:40.926Z,-0.67
2016-11-29T03:45:02.641Z,-0.57
2016-11-29T03:45:24.368Z,-0.63
2016-11-29T03:45:46.081Z,-0.54
2016-11-29T03:46:07.798Z,-0.48
2016-11-29T03:46:29.511Z,-0.38
2016-11-29T03:46:51.237Z,-0.45
2016-11-29T03:47:12.952Z,-0.45
2016-11-29T03:47:34.665Z,-0.50
2016-11-29T03:47:56.382Z,-0.51
2016-11-29T03:48:18.096Z,-0.51
2016-11-29T03:48:39.814Z,-0.51
2016-11-29T03:49:01.528Z,-0.55
2016-11-29T03:49:23.281Z,-0.61
2016-11-29T03:49:45.001Z,-0.56
2016-11-29T03:50:06.715Z,-0.59
2016-11-29T03:50:28.429Z,-0.58
2016-11-29T03:50:50.155Z,-0.62
2016-11-29T03:51:11.876Z,-0.65
2016-11-29T03:51:33.597Z,-0.55
2016-11-29T03:51:55.306Z,-0.48
2016-11-29T03:52:17.021Z,-0.40
2016-11-29T03:52:38.747Z,-0.40
2016-11-29T03:53:00.470Z,-0.49
2016-11-29T03:53:22.202Z,-0.53
2016-11-29T03:53:43.920Z,-0.59
2016-11-29T03:54:05.636Z,-0.67
2016-11-29T03:54:27.356Z,-0.73
2016-11-29T03:54:49.071Z,-0.72
2016-11-29T03:55:10.793Z,-0.62
2016-11-29T03:55:32.507Z,-0.53
2016-11-29T03:55:54.227Z,-0.60
2016-11-29T03:56:15.942Z,-0.67
2016-11-29T03:56:37.670Z,-0.67
2016-11-29T03:56:59.382Z,-0.69
2016-11-29T03:57:21.101Z,-0.74
2016-11-29T03:57:42.821Z,-0.77
2016-11-29T03:58:04.544Z,-0.81
2016-11-29T03:58:26.261Z,-0.73
2016-11-29T03:58:47.981Z,-0.72
2016-11-29T03:59:09.694Z,-0.79
2016-11-29T03:59:31.412Z,-0.81
2016-11-29T03:59:53.128Z,-0.71
2016-11-29T04:00:14.844Z,-0.59
2016-11-29T04:00:36.559Z,-0.51
2016-11-29T04:00:58.306Z,-0.60
2016-11-29T04:01:20.024Z,-0.64
2016-11-29T04:01:41.743Z,-0.70
2016-11-29T04:02:03.459Z,-0.78
2016-11-29T04:02:25.195Z,-0.68
2016-11-29T04:02:46.910Z,-0.73
2016-11-29T04:03:08.629Z,-0.81
2016-11-29T04:03:30.348Z,-0.81
2016-11-29T04:03:52.064Z,-0.79
2016-11-29T04:04:13.780Z,-0.81
2016-11-29T04:04:35.497Z,-0.72
2016-11-29T04:04:57.209Z,-0.63
2016-11-29T04:05:18.924Z,-0.52
2016-11-29T04:05:40.645Z,-0.58
2016-11-29T04:06:02.366Z,-0.63
2016-11-29T04:06:24.080Z,-0.58
2016-11-29T04:06:45.791Z,-0.60
2016-11-29T04:07:07.507Z,-0.54
2016-11-29T04:07:29.240Z,-0.57
2016-11-29T04:07:50.959Z,-0.50
2016-11-29T04:08:12.677Z,-0.44
2016-11-29T04:08:34.397Z,-0.46
2016-11-29T04:08:56.118Z,-0.54
2016-11-29T04:09:17.835Z,-0.65
2016-11-29T04:09:39.574Z,-0.78
2016-11-29T04:10:01.294Z,-0.85
2016-11-29T04:10:23.007Z,-0.75
2016-11-29T04:10:44.725Z,-0.63
2016-11-29T04:11:06.452Z,-0.60
2016-11-29T04:11:28.159Z,-0.57
2016-11-29T04:11:49.875Z,-0.64
2016-11-29T04:12:11.592Z,-0.71
2016-11-29T04:12:33.318Z,-0.80
2016-11-29T04:12:55.032Z,-0.91
2016-11-29T04:13:16.757Z,-0.97
2016-11-29T04:13:38.487Z,-1.02
2016-11-29T04:14:00.203Z,-1.00
2016-11-29T04:14:21.916Z,-0.77
2016-11-29T04:14:43.637Z,-0.77
2016-11-29T04:15:05.360Z,-0.81
2016-11-29T04:15:27.077Z,-0.85
2016-11-29T04:15:48.800Z,-0.89
2016-11-29T04:16:10.517Z,-0.88
2016-11-29T04:16:32.234Z,-0.93
2016-11-29T04:16:53.958Z,-0.93
2016-11-29T04:17:15.674Z,-0.91
2016-11-29T04:17:37.389Z,-0.93
2016-11-29T04:17:59.109Z,-0.93
2016-11-29T04:18:20.823Z,-0.75
2016-11-29T04:18:42.541Z,-0.74
2016-11-29T04:19:04.253Z,-0.76
2016-11-29T04:19:25.967Z,-0.65
2016-11-29T04:19:47.698Z,-0.53
2016-11-29T04:20:09.412Z,-0.62
2016-11-29T04:20:31.124Z,-0.67
2016-11-29T04:20:52.840Z,-0.74
2016-11-29T04:21:14.554Z,-0.76
2016-11-29T04:21:36.284Z,-0.64
2016-11-29T04:21:58.000Z,-0.51
2016-11-29T04:22:19.720Z,-0.53
2016-11-29T04:22:41.433Z,-0.61
2016-11-29T04:23:03.151Z,-0.66
2016-11-29T04:23:24.866Z,-0.74
2016-11-29T04:23:46.585Z,-0.80
2016-11-29T04:24:08.304Z,-0.82
2016-11-29T04:24:30.017Z,-0.89
2016-11-29T04:24:51.735Z,-0.93
2016-11-29T04:25:13.453Z,-0.88
2016-11-29T04:25:35.173Z,-0.75
2016-11-29T04:25:56.902Z,-0.61
2016-11-29T04:26:18.604Z,-0.59
2016-11-29T04:26:40.321Z,-0.65
2016-11-29T04:27:02.038Z,-0.72
2016-11-29T04:27:23.755Z,-0.71
2016-11-29T04:27:45.467Z,-0.60
2016-11-29T04:28:07.181Z,-0.58
2016-11-29T04:28:28.905Z,-0.63
2016-11-29T04:28:50.619Z,-0.70
2016-11-29T04:29:12.340Z,-0.67
2016-11-29T04:29:34.061Z,-0.65
2016-11-29T04:29:55.790Z,-0.67
2016-11-29T04:30:17.507Z,-0.63
2016-11-29T04:30:39.221Z,-0.68
2016-11-29T04:31:00.944Z,-0.78
2016-11-29T04:31:22.664Z,-0.82
2016-11-29T04:31:44.380Z,-0.86
2016-11-29T04:32:06.093Z,-0.78
2016-11-29T04:32:27.805Z,-0.74
2016-11-29T04:32:49.522Z,-0.75
2016-11-29T04:33:11.235Z,-0.65
2016-11-29T04:33:32.955Z,-0.67
2016-11-29T04:33:54.677Z,-0.64
2016-11-29T04:34:16.394Z,-0.73
2016-11-29T04:34:38.109Z,-0.90
2016-11-29T04:34:59.825Z,-0.93
2016-11-29T04:35:21.553Z,-0.99
2016-11-29T04:35:43.269Z,-0.92
2016-11-29T04:36:04.986Z,-0.78
2016-11-29T04:36:26.716Z,-0.79
2016-11-29T04:36:48.426Z,-0.83
2016-11-29T04:37:10.142Z,-0.91
2016-11-29T04:37:31.862Z,-0.85
2016-11-29T04:37:53.576Z,-0.75
2016-11-29T04:38:15.291Z,-0.77
2016-11-29T04:38:37.007Z,-0.87
2016-11-29T04:38:58.722Z,-0.93
2016-11-29T04:39:20.441Z,-0.81
2016-11-29T04:39:42.157Z,-0.78
2016-11-29T04:40:03.891Z,-0.77
2016-11-29T04:40:25.625Z,-0.71
2016-11-29T04:40:47.340Z,-0.73
2016-11-29T04:41:09.053Z,-0.69
2016-11-29T04:41:30.768Z,-0.63
2016-11-29T04:41:52.484Z,-0.63
2016-11-29T04:42:14.200Z,-0.74